Time;durP1;ratioP1;P1;durP2;ratioP2;P2;SDS_P1;SDS_P2;PMS_P1;PMS_P2;Temp;Humidity;BMP_temperature;BMP_pressure;BME280_temperature;BME280_humidity;BME280_pressure;Samples;Min_cycle;Max_cycle;Signal;HPM_P1;HPM_P2
2023/03/31 00:00:10;;;;;;;;;;;;;;;;;;5084022;28;20578;-79
2023/03/31 00:02:40;;;;;;;;;;;;;;;;;;5091788;28;19927;-79
2023/03/31 00:05:07;;;;;;;;;;;;;;;;;;5077214;28;19929;-79
2023/03/31 00:07:36;;;;;;;;;;;;;;;;;;5092918;28;19952;-79
2023/03/31 00:10:03;;;;;;;;;;;;;;;;;;5091193;28;19946;-79
2023/03/31 00:12:30;;;;;;;;;;;;;;;;;;5090112;28;20026;-80
2023/03/31 00:14:59;;;;;;;;;;;;;;;;;;5082344;28;20572;-80
2023/03/31 00:17:26;;;;;;;;;;;;;;;;;;5092395;28;19924;-79
2023/03/31 00:19:59;;;;;;;;;;;;;;;;;;5076142;28;19924;-80
2023/03/31 00:22:27;;;;;;;;;;;;;;;;;;5090877;28;19931;-80
2023/03/31 00:24:54;;;;;;;;;;;;;;;;;;5087832;28;19931;-79
2023/03/31 00:27:21;;;;;;;;;;;;;;;;;;5092813;28;19930;-81
2023/03/31 00:29:49;;;;;;;;;;;;;;;;;;5083950;28;19925;-80
2023/03/31 00:32:16;;;;;;;;;;;;;;;;;;5081093;28;19947;-80
2023/03/31 00:34:43;;;;;;;;;;;;;;;;;;5083172;28;19924;-79
2023/03/31 00:37:14;;;;;;;;;;;;;;;;;;5090590;28;20387;-80
2023/03/31 00:39:42;;;;;;;;;;;;;;;;;;5091345;28;19927;-79
2023/03/31 00:42:11;;;;;;;;;;;;;;;;;;5090378;28;19935;-80
2023/03/31 00:44:39;;;;;;;;;;;;;;;;;;5083731;28;19924;-80
2023/03/31 00:47:07;;;;;;;;;;;;;;;;;;5091689;28;20348;-81
2023/03/31 00:49:35;;;;;;;;;;;;;;;;;;5083092;28;19932;-80
2023/03/31 00:52:02;;;;;;;;;;;;;;;;;;5088987;28;19969;-80
2023/03/31 00:54:29;;;;;;;;;;;;;;;;;;5081338;28;19976;-81
2023/03/31 00:56:57;;;;;;;;;;;;;;;;;;5091135;28;19930;-80
2023/03/31 00:59:26;;;;;;;;;;;;;;;;;;5089983;28;19924;-80
2023/03/31 01:01:53;;;;;;;;;;;;;;;;;;5088063;28;19924;-81
2023/03/31 01:04:21;;;;;;;;;;;;;;;;;;5090033;28;19924;-81
2023/03/31 01:06:49;;;;;;;;;;;;;;;;;;5090224;28;19953;-82
2023/03/31 01:09:16;;;;;;;;;;;;;;;;;;5089866;28;20406;-82
2023/03/31 01:11:43;;;;;;;;;;;;;;;;;;5091250;28;20393;-81
2023/03/31 01:14:10;;;;;;;;;;;;;;;;;;5088744;28;20383;-81
2023/03/31 01:16:38;;;;;;;;;;;;;;;;;;5090102;28;20391;-81
2023/03/31 01:19:05;;;;;;;;;;;;;;;;;;5089963;28;19924;-81
2023/03/31 01:21:32;;;;;;;;;;;;;;;;;;5083921;28;19924;-81
2023/03/31 01:23:59;;;;;;;;;;;;;;;;;;5090426;28;19973;-78
2023/03/31 01:26:26;;;;;;;;;;;;;;;;;;5090426;28;19947;-81
2023/03/31 01:28:53;;;;;;;;;;;;;;;;;;5090704;28;19924;-82
2023/03/31 01:31:20;;;;;;;;;;;;;;;;;;5091607;28;19931;-79
2023/03/31 01:33:47;;;;;;;;;;;;;;;;;;5089760;28;19924;-79
2023/03/31 01:36:14;;;;;;;;;;;;;;;;;;5088057;28;20003;-79
2023/03/31 01:38:41;;;;;;;;;;;;;;;;;;5088506;28;20387;-80
2023/03/31 01:41:08;;;;;;;;;;;;;;;;;;5091344;28;19924;-80
2023/03/31 01:43:35;;;;;;;;;;;;;;;;;;5085039;28;19968;-80
2023/03/31 01:46:02;;;;;;;;;;;;;;;;;;5079436;28;19928;-80
2023/03/31 01:48:32;;;;;;;;;;;;;;;;;;5085124;28;19928;-79
2023/03/31 01:50:59;;;;;;;;;;;;;;;;;;5090335;28;20306;-81
2023/03/31 01:53:26;;;;;;;;;;;;;;;;;;5076389;28;19924;-81
2023/03/31 01:55:53;;;;;;;;;;;;;;;;;;5091040;28;20288;-81
2023/03/31 01:58:21;;;;;;;;;;;;;;;;;;5089626;28;20386;-80
2023/03/31 02:00:50;;;;;;;;;;;;;;;;;;5095840;28;19924;-80
2023/03/31 02:03:18;;;;;;;;;;;;;;;;;;5096266;28;19967;-81
2023/03/31 02:05:45;;;;;;;;;;;;;;;;;;5095998;28;19924;-81
2023/03/31 02:08:12;;;;;;;;;;;;;;;;;;5096657;28;19928;-81
2023/03/31 02:10:39;;;;;;;;;;;;;;;;;;5096530;28;19924;-81
2023/03/31 02:13:06;;;;;;;;;;;;;;;;;;5095968;28;19955;-81
2023/03/31 02:15:33;;;;;;;;;;;;;;;;;;5095185;28;19924;-81
2023/03/31 02:18:00;;;;;;;;;;;;;;;;;;5094593;28;20480;-81
2023/03/31 02:20:27;;;;;;;;;;;;;;;;;;5095450;28;20313;-81
2023/03/31 02:22:54;;;;;;;;;;;;;;;;;;5091799;28;19931;-81
2023/03/31 02:25:21;;;;;;;;;;;;;;;;;;5095362;28;19924;-82
2023/03/31 02:27:48;;;;;;;;;;;;;;;;;;5092156;28;20298;-79
2023/03/31 02:30:15;;;;;;;;;;;;;;;;;;5093048;28;20391;-79
2023/03/31 02:32:42;;;;;;;;;;;;;;;;;;5093055;28;19931;-78
2023/03/31 02:35:09;;;;;;;;;;;;;;;;;;5094242;28;19930;-79
2023/03/31 02:37:36;;;;;;;;;;;;;;;;;;5090745;28;20285;-79
2023/03/31 02:40:03;;;;;;;;;;;;;;;;;;5094782;28;20332;-80
2023/03/31 02:42:30;;;;;;;;;;;;;;;;;;5093250;28;19924;-82
2023/03/31 02:44:57;;;;;;;;;;;;;;;;;;5090576;28;19928;-79
2023/03/31 02:47:24;;;;;;;;;;;;;;;;;;5093450;28;19924;-79
2023/03/31 02:49:51;;;;;;;;;;;;;;;;;;5104452;28;19935;-79
2023/03/31 02:52:18;;;;;;;;;;;;;;;;;;5109409;28;19958;-81
2023/03/31 02:54:45;;;;;;;;;;;;;;;;;;5107377;28;19930;-80
2023/03/31 02:57:12;;;;;;;;;;;;;;;;;;5107634;28;19963;-80
2023/03/31 02:59:39;;;;;;;;;;;;;;;;;;5093779;28;20086;-79
2023/03/31 03:02:06;;;;;;;;;;;;;;;;;;5093619;28;19924;-78
2023/03/31 03:04:34;;;;;;;;;;;;;;;;;;5080853;28;19924;-78
2023/03/31 03:07:01;;;;;;;;;;;;;;;;;;5080976;28;19969;-78
2023/03/31 03:09:28;;;;;;;;;;;;;;;;;;5089820;28;20391;-76
2023/03/31 03:11:55;;;;;;;;;;;;;;;;;;5084060;28;19931;-77
2023/03/31 03:14:22;;;;;;;;;;;;;;;;;;5083345;28;20272;-77
2023/03/31 03:16:49;;;;;;;;;;;;;;;;;;5077280;28;20308;-77
2023/03/31 03:19:16;;;;;;;;;;;;;;;;;;5091747;28;20275;-78
2023/03/31 03:21:44;;;;;;;;;;;;;;;;;;5094026;28;20354;-79
2023/03/31 03:24:11;;;;;;;;;;;;;;;;;;5090582;28;19928;-78
2023/03/31 03:26:39;;;;;;;;;;;;;;;;;;5093440;28;19931;-78
2023/03/31 03:29:06;;;;;;;;;;;;;;;;;;5089993;28;20022;-78
2023/03/31 03:31:33;;;;;;;;;;;;;;;;;;5093300;28;19931;-78
2023/03/31 03:34:00;;;;;;;;;;;;;;;;;;5092230;28;19982;-79
2023/03/31 03:36:27;;;;;;;;;;;;;;;;;;5093566;28;19924;-80
2023/03/31 03:38:54;;;;;;;;;;;;;;;;;;5087478;28;19939;-79
2023/03/31 03:41:21;;;;;;;;;;;;;;;;;;5090491;28;19930;-78
2023/03/31 03:43:48;;;;;;;;;;;;;;;;;;5074688;28;19924;-78
2023/03/31 03:46:15;;;;;;;;;;;;;;;;;;5093747;28;19928;-79
2023/03/31 03:48:42;;;;;;;;;;;;;;;;;;5090493;28;20404;-79
2023/03/31 03:51:09;;;;;;;;;;;;;;;;;;5091214;28;19924;-78
2023/03/31 03:53:36;;;;;;;;;;;;;;;;;;5084280;28;19931;-79
2023/03/31 03:56:03;;;;;;;;;;;;;;;;;;5090756;28;19924;-78
2023/03/31 03:58:30;;;;;;;;;;;;;;;;;;5091103;28;19928;-78
2023/03/31 04:00:57;;;;;;;;;;;;;;;;;;5091596;28;20020;-79
2023/03/31 04:03:24;;;;;;;;;;;;;;;;;;5093793;28;19924;-79
2023/03/31 04:05:51;;;;;;;;;;;;;;;;;;5113401;28;19924;-81
2023/03/31 04:08:18;;;;;;;;;;;;;;;;;;5110667;28;19942;-80
2023/03/31 04:10:47;;;;;;;;;;;;;;;;;;5093069;28;19931;-79
2023/03/31 04:13:14;;;;;;;;;;;;;;;;;;5094456;28;19968;-79
2023/03/31 04:15:41;;;;;;;;;;;;;;;;;;5092895;28;19923;-80
2023/03/31 04:18:09;;;;;;;;;;;;;;;;;;5090418;28;19977;-80
2023/03/31 04:20:36;;;;;;;;;;;;;;;;;;5092520;28;20396;-80
2023/03/31 04:23:04;;;;;;;;;;;;;;;;;;5091426;28;19924;-79
2023/03/31 04:25:31;;;;;;;;;;;;;;;;;;5089609;28;19924;-80
2023/03/31 04:27:58;;;;;;;;;;;;;;;;;;5084687;28;20023;-79
2023/03/31 04:30:29;;;;;;;;;;;;;;;;;;5091356;28;19930;-78
2023/03/31 04:32:56;;;;;;;;;;;;;;;;;;5092185;28;19930;-81
2023/03/31 04:35:23;;;;;;;;;;;;;;;;;;5092141;28;19961;-81
2023/03/31 04:37:51;;;;;;;;;;;;;;;;;;5087257;28;19925;-81
2023/03/31 04:40:18;;;;;;;;;;;;;;;;;;5089952;28;19978;-81
2023/03/31 04:42:45;;;;;;;;;;;;;;;;;;5090006;28;20008;-81
2023/03/31 04:45:12;;;;;;;;;;;;;;;;;;5089891;28;19924;-82
2023/03/31 04:47:39;;;;;;;;;;;;;;;;;;5089561;28;20011;-82
2023/03/31 04:50:06;;;;;;;;;;;;;;;;;;5088404;28;19930;-83
2023/03/31 04:52:33;;;;;;;;;;;;;;;;;;5088703;28;20017;-80
2023/03/31 04:55:00;;;;;;;;;;;;;;;;;;5085681;28;19924;-80
2023/03/31 04:57:27;;;;;;;;;;;;;;;;;;5083393;28;20019;-80
2023/03/31 04:59:54;;;;;;;;;;;;;;;;;;5085885;28;19931;-80
2023/03/31 05:02:22;;;;;;;;;;;;;;;;;;5090263;28;19928;-79
2023/03/31 05:04:49;;;;;;;;;;;;;;;;;;5090162;28;19978;-82
2023/03/31 05:07:16;;;;;;;;;;;;;;;;;;5091051;28;19924;-83
2023/03/31 05:09:43;;;;;;;;;;;;;;;;;;5083428;28;19979;-80
2023/03/31 05:12:10;;;;;;;;;;;;;;;;;;5091115;28;19924;-80
2023/03/31 05:14:37;;;;;;;;;;;;;;;;;;5078117;28;19924;-80
2023/03/31 05:17:04;;;;;;;;;;;;;;;;;;5082412;28;20383;-78
2023/03/31 05:19:31;;;;;;;;;;;;;;;;;;5087948;28;19928;-79
2023/03/31 05:21:58;;;;;;;;;;;;;;;;;;5082445;28;19924;-77
2023/03/31 05:24:27;;;;;;;;;;;;;;;;;;5088717;28;20431;-79
2023/03/31 05:26:54;;;;;;;;;;;;;;;;;;5090419;28;19924;-81
2023/03/31 05:29:21;;;;;;;;;;;;;;;;;;5082305;28;19931;-80
2023/03/31 05:31:48;;;;;;;;;;;;;;;;;;5090557;28;19924;-80
2023/03/31 05:34:15;;;;;;;;;;;;;;;;;;5095655;28;19938;-80
2023/03/31 05:36:43;;;;;;;;;;;;;;;;;;5084665;28;19952;-80
2023/03/31 05:39:10;;;;;;;;;;;;;;;;;;5082564;28;19930;-81
2023/03/31 05:41:37;;;;;;;;;;;;;;;;;;5095154;28;19932;-80
2023/03/31 05:44:04;;;;;;;;;;;;;;;;;;5095177;28;20011;-80
2023/03/31 05:46:32;;;;;;;;;;;;;;;;;;5097449;28;19931;-81
2023/03/31 05:48:59;;;;;;;;;;;;;;;;;;5094675;28;19924;-81
2023/03/31 05:51:26;;;;;;;;;;;;;;;;;;5097717;28;20018;-79
2023/03/31 05:53:53;;;;;;;;;;;;;;;;;;5094323;28;19935;-84
2023/03/31 05:56:20;;;;;;;;;;;;;;;;;;5107401;28;20004;-82
2023/03/31 05:58:47;;;;;;;;;;;;;;;;;;5106615;28;19924;-83
2023/03/31 06:01:19;;;;;;;;;;;;;;;;;;5110399;28;19935;-84
2023/03/31 06:03:46;;;;;;;;;;;;;;;;;;5098910;28;19931;-85
2023/03/31 06:06:13;;;;;;;;;;;;;;;;;;5100129;28;19969;-83
2023/03/31 06:08:40;;;;;;;;;;;;;;;;;;5087324;28;20417;-83
2023/03/31 06:11:07;;;;;;;;;;;;;;;;;;5091335;28;19924;-81
2023/03/31 06:13:34;;;;;;;;;;;;;;;;;;5094217;28;19954;-85
2023/03/31 06:16:01;;;;;;;;;;;;;;;;;;5098115;28;19928;-84
2023/03/31 06:18:28;;;;;;;;;;;;;;;;;;5097467;28;20018;-85
2023/03/31 06:20:55;;;;;;;;;;;;;;;;;;5097174;28;19938;-78
2023/03/31 06:23:22;;;;;;;;;;;;;;;;;;5090279;28;20023;-86
2023/03/31 06:25:49;;;;;;;;;;;;;;;;;;5086930;28;19939;-83
2023/03/31 06:28:16;;;;;;;;;;;;;;;;;;5087947;28;19971;-80
2023/03/31 06:30:43;;;;;;;;;;;;;;;;;;5081587;28;22582;-77
2023/03/31 06:33:10;;;;;;;;;;;;;;;;;;5091094;28;20415;-79
2023/03/31 06:35:37;;;;;;;;;;;;;;;;;;5094713;28;19930;-77
2023/03/31 06:38:05;;;;;;;;;;;;;;;;;;5082457;28;19925;-76
2023/03/31 06:40:32;;;;;;;;;;;;;;;;;;5096139;28;19928;-78
2023/03/31 06:42:59;;;;;;;;;;;;;;;;;;5088741;28;20659;-78
2023/03/31 06:45:26;;;;;;;;;;;;;;;;;;5086081;28;19963;-74
2023/03/31 06:47:53;;;;;;;;;;;;;;;;;;5083909;28;19971;-77
2023/03/31 06:50:20;;;;;;;;;;;;;;;;;;5085230;28;20055;-77
2023/03/31 06:52:47;;;;;;;;;;;;;;;;;;5085756;28;19925;-80
2023/03/31 06:55:14;;;;;;;;;;;;;;;;;;5084556;28;19931;-78
2023/03/31 06:57:41;;;;;;;;;;;;;;;;;;5081330;28;19935;-78
2023/03/31 07:00:08;;;;;;;;;;;;;;;;;;5091731;28;19924;-77
2023/03/31 07:02:36;;;;;;;;;;;;;;;;;;5079049;28;19940;-76
2023/03/31 07:05:03;;;;;;;;;;;;;;;;;;5078387;28;19985;-77
2023/03/31 07:07:30;;;;;;;;;;;;;;;;;;5089813;28;19931;-76
2023/03/31 07:09:57;;;;;;;;;;;;;;;;;;5083860;28;20295;-76
2023/03/31 07:12:24;;;;;;;;;;;;;;;;;;5084347;28;20306;-76
2023/03/31 07:14:51;;;;;;;;;;;;;;;;;;5083585;28;19928;-75
2023/03/31 07:17:18;;;;;;;;;;;;;;;;;;5092013;28;19995;-73
2023/03/31 07:19:46;;;;;;;;;;;;;;;;;;5086068;28;20427;-72
2023/03/31 07:22:13;;;;;;;;;;;;;;;;;;5082637;28;20356;-73
2023/03/31 07:24:40;;;;;;;;;;;;;;;;;;5084455;28;20367;-77
2023/03/31 07:27:07;;;;;;;;;;;;;;;;;;5073683;28;20387;-77
2023/03/31 07:29:34;;;;;;;;;;;;;;;;;;5079495;28;20421;-77
2023/03/31 07:32:01;;;;;;;;;;;;;;;;;;5093554;28;20388;-78
2023/03/31 07:34:28;;;;;;;;;;;;;;;;;;5093370;28;20278;-77
2023/03/31 07:36:55;;;;;;;;;;;;;;;;;;5093826;28;20033;-75
2023/03/31 07:39:22;;;;;;;;;;;;;;;;;;5093388;28;20892;-76
2023/03/31 07:41:49;;;;;;;;;;;;;;;;;;5092113;28;20433;-76
2023/03/31 07:44:17;;;;;;;;;;;;;;;;;;5093866;28;19924;-78
2023/03/31 07:46:44;;;;;;;;;;;;;;;;;;5094227;28;19924;-79
2023/03/31 07:49:14;;;;;;;;;;;;;;;;;;5091960;28;20329;-79
2023/03/31 07:51:41;;;;;;;;;;;;;;;;;;5091862;28;19934;-78
2023/03/31 07:54:08;;;;;;;;;;;;;;;;;;5083745;28;19924;-77
2023/03/31 07:56:35;;;;;;;;;;;;;;;;;;5088268;28;19930;-77
2023/03/31 07:59:03;;;;;;;;;;;;;;;;;;5085273;28;19970;-77
2023/03/31 08:01:30;;;;;;;;;;;;;;;;;;5096963;28;20015;-76
2023/03/31 08:03:57;;;;;;;;;;;;;;;;;;5098181;28;19924;-78
2023/03/31 08:06:25;;;;;;;;;;;;;;;;;;5084718;28;20031;-76
2023/03/31 08:08:52;;;;;;;;;;;;;;;;;;5092470;28;19928;-77
2023/03/31 08:11:20;;;;;;;;;;;;;;;;;;5093310;28;19963;-75
2023/03/31 08:13:47;;;;;;;;;;;;;;;;;;5094216;28;19924;-78
2023/03/31 08:16:13;;;;;;;;;;;;;;;;;;5100833;28;19931;-78
2023/03/31 08:18:40;;;;;;;;;;;;;;;;;;5092212;28;19946;-76
2023/03/31 08:21:08;;;;;;;;;;;;;;;;;;5095187;28;20381;-78
2023/03/31 08:23:35;;;;;;;;;;;;;;;;;;5097394;28;20640;-75
2023/03/31 08:26:02;;;;;;;;;;;;;;;;;;5084385;28;19960;-74
2023/03/31 08:28:29;;;;;;;;;;;;;;;;;;5094486;28;19928;-75
2023/03/31 08:30:58;;;;;;;;;;;;;;;;;;5091513;28;19995;-73
2023/03/31 08:33:25;;;;;;;;;;;;;;;;;;5087010;28;19970;-74
2023/03/31 08:35:52;;;;;;;;;;;;;;;;;;5092128;28;19963;-75
2023/03/31 08:38:19;;;;;;;;;;;;;;;;;;5085947;28;20383;-73
2023/03/31 08:40:46;;;;;;;;;;;;;;;;;;5092802;28;19924;-76
2023/03/31 08:43:13;;;;;;;;;;;;;;;;;;5090645;28;20390;-71
2023/03/31 08:45:40;;;;;;;;;;;;;;;;;;5095007;28;19947;-74
2023/03/31 08:48:07;;;;;;;;;;;;;;;;;;5092144;28;19963;-74
2023/03/31 08:50:34;;;;;;;;;;;;;;;;;;5087756;28;19984;-74
2023/03/31 08:53:01;;;;;;;;;;;;;;;;;;5081080;28;19924;-73
2023/03/31 08:55:31;;;;;;;;;;;;;;;;;;5081253;28;19932;-74
2023/03/31 08:57:58;;;;;;;;;;;;;;;;;;5096277;28;19991;-79
2023/03/31 09:00:25;;;;;;;;;;;;;;;;;;5092632;28;19956;-79
2023/03/31 09:02:52;;;;;;;;;;;;;;;;;;5095011;28;19928;-77
2023/03/31 09:05:19;;;;;;;;;;;;;;;;;;5094417;28;19974;-77
2023/03/31 09:07:46;;;;;;;;;;;;;;;;;;5093139;28;19928;-77
2023/03/31 09:10:13;;;;;;;;;;;;;;;;;;5097119;28;19979;-76
2023/03/31 09:12:40;;;;;;;;;;;;;;;;;;5091451;28;20077;-76
2023/03/31 09:15:07;;;;;;;;;;;;;;;;;;5090545;28;19925;-77
2023/03/31 09:17:34;;;;;;;;;;;;;;;;;;5100052;28;20335;-76
2023/03/31 09:20:02;;;;;;;;;;;;;;;;;;5098955;28;20022;-78
2023/03/31 09:22:29;;;;;;;;;;;;;;;;;;5100589;28;19963;-76
2023/03/31 09:24:56;;;;;;;;;;;;;;;;;;5086203;28;19956;-78
2023/03/31 09:27:23;;;;;;;;;;;;;;;;;;5096324;28;20003;-77
2023/03/31 09:29:50;;;;;;;;;;;;;;;;;;5094888;28;20027;-76
2023/03/31 09:32:17;;;;;;;;;;;;;;;;;;5094094;28;20018;-77
2023/03/31 09:34:44;;;;;;;;;;;;;;;;;;5091201;28;20027;-78
2023/03/31 09:37:31;;;;;;;;;;;;;;;;;;5091689;28;19925;-74
2023/03/31 09:40:06;;;;;;;;;;;;;;;;;;5093118;28;19924;-77
2023/03/31 09:42:46;;;;;;;;;;;;;;;;;;5097277;28;19998;-77
2023/03/31 09:45:15;;;;;;;;;;;;;;;;;;5095201;28;19981;-76
2023/03/31 09:50:38;;;;;;;;;;;;;;;;;;5100918;28;19932;-78
2023/03/31 09:53:10;;;;;;;;;;;;;;;;;;5098974;28;19924;-81
2023/03/31 09:55:41;;;;;;;;;;;;;;;;;;5094350;28;19946;-79
2023/03/31 09:58:12;;;;;;;;;;;;;;;;;;5091796;28;19931;-80
2023/03/31 10:00:48;;;;;;;;;;;;;;;;;;5092664;28;19958;-83
2023/03/31 10:03:18;;;;;;;;;;;;;;;;;;5096397;28;19931;-80
2023/03/31 10:08:30;;;;;;;;;;;;;;;;;;5098324;28;19931;-80
2023/03/31 10:11:00;;;;;;;;;;;;;;;;;;5099886;28;19928;-80
2023/03/31 10:13:28;;;;;;;;;;;;;;;;;;5100878;28;19932;-81
2023/03/31 10:16:01;;;;;;;;;;;;;;;;;;5101073;28;19924;-79
2023/03/31 10:18:32;;;;;;;;;;;;;;;;;;5098419;28;19954;-80
2023/03/31 10:21:00;;;;;;;;;;;;;;;;;;5105027;28;19931;-82
2023/03/31 10:23:27;;;;;;;;;;;;;;;;;;5099582;28;19927;-81
2023/03/31 10:25:59;;;;;;;;;;;;;;;;;;5101082;28;19931;-77
2023/03/31 10:28:27;;;;;;;;;;;;;;;;;;5098596;28;19924;-79
2023/03/31 10:31:03;;;;;;;;;;;;;;;;;;5101150;28;20359;-77
2023/03/31 10:33:30;;;;;;;;;;;;;;;;;;5089148;28;19932;-80
2023/03/31 10:36:00;;;;;;;;;;;;;;;;;;5104156;28;19971;-80
2023/03/31 10:38:33;;;;;;;;;;;;;;;;;;5097648;28;19924;-80
2023/03/31 10:41:02;;;;;;;;;;;;;;;;;;5098677;28;19962;-80
2023/03/31 10:43:29;;;;;;;;;;;;;;;;;;5104744;28;19943;-79
2023/03/31 10:45:58;;;;;;;;;;;;;;;;;;5105834;28;19933;-79
2023/03/31 10:48:33;;;;;;;;;;;;;;;;;;5105038;28;19924;-79
2023/03/31 10:51:07;;;;;;;;;;;;;;;;;;5103807;28;19971;-82
2023/03/31 10:53:40;;;;;;;;;;;;;;;;;;5105397;28;19932;-80
2023/03/31 10:56:11;;;;;;;;;;;;;;;;;;5099539;28;19931;-78
2023/03/31 10:58:38;;;;;;;;;;;;;;;;;;5098415;28;19924;-81
2023/03/31 11:01:08;;;;;;;;;;;;;;;;;;5107064;28;19924;-81
2023/03/31 11:03:36;;;;;;;;;;;;;;;;;;5095963;28;19985;-80
2023/03/31 11:06:04;;;;;;;;;;;;;;;;;;5093244;28;19924;-79
2023/03/31 11:08:31;;;;;;;;;;;;;;;;;;5092989;28;20010;-81
2023/03/31 11:10:59;;;;;;;;;;;;;;;;;;5095486;28;19973;-80
2023/03/31 11:13:26;;;;;;;;;;;;;;;;;;5104438;28;19924;-75
2023/03/31 11:15:56;;;;;;;;;;;;;;;;;;5102462;28;19977;-79
2023/03/31 11:18:23;;;;;;;;;;;;;;;;;;5100097;28;19936;-76
2023/03/31 11:20:50;;;;;;;;;;;;;;;;;;5100915;28;19971;-79
2023/03/31 11:23:17;;;;;;;;;;;;;;;;;;5092086;28;19924;-79
2023/03/31 11:25:45;;;;;;;;;;;;;;;;;;5102241;28;19931;-78
2023/03/31 11:28:12;;;;;;;;;;;;;;;;;;5104159;28;19991;-78
2023/03/31 11:30:39;;;;;;;;;;;;;;;;;;5103654;28;19956;-77
2023/03/31 11:33:07;;;;;;;;;;;;;;;;;;5103920;28;20362;-77
2023/03/31 11:35:36;;;;;;;;;;;;;;;;;;5102980;28;19928;-79
2023/03/31 11:38:05;;;;;;;;;;;;;;;;;;5102503;28;19951;-78
2023/03/31 11:40:32;;;;;;;;;;;;;;;;;;5101665;28;20383;-77
2023/03/31 11:43:00;;;;;;;;;;;;;;;;;;5103645;28;19979;-75
2023/03/31 11:45:27;;;;;;;;;;;;;;;;;;5101474;28;19930;-78
2023/03/31 11:47:54;;;;;;;;;;;;;;;;;;5103515;28;19924;-76
2023/03/31 11:50:21;;;;;;;;;;;;;;;;;;5098397;28;19924;-75
2023/03/31 11:52:48;;;;;;;;;;;;;;;;;;5099745;28;20430;-76
2023/03/31 11:55:15;;;;;;;;;;;;;;;;;;5096945;28;20700;-76
2023/03/31 11:57:42;;;;;;;;;;;;;;;;;;5087517;28;20389;-76
2023/03/31 12:00:10;;;;;;;;;;;;;;;;;;5081599;28;20007;-77
2023/03/31 12:02:36;;;;;;;;;;;;;;;;;;5082753;28;20326;-76
2023/03/31 12:05:03;;;;;;;;;;;;;;;;;;5086179;28;19924;-76
2023/03/31 12:07:30;;;;;;;;;;;;;;;;;;5084975;28;21248;-77
2023/03/31 12:10:02;;;;;;;;;;;;;;;;;;5089079;28;19924;-76
2023/03/31 12:12:29;;;;;;;;;;;;;;;;;;5093835;28;19928;-77
2023/03/31 12:14:56;;;;;;;;;;;;;;;;;;5092408;28;19924;-76
2023/03/31 12:17:23;;;;;;;;;;;;;;;;;;5096663;28;19968;-76
2023/03/31 12:19:50;;;;;;;;;;;;;;;;;;5092609;28;20011;-78
2023/03/31 12:22:18;;;;;;;;;;;;;;;;;;5099001;28;20033;-77
2023/03/31 12:24:45;;;;;;;;;;;;;;;;;;5089235;28;20315;-77
2023/03/31 12:27:12;;;;;;;;;;;;;;;;;;5095940;28;19932;-75
2023/03/31 12:29:39;;;;;;;;;;;;;;;;;;5096857;28;19931;-74
2023/03/31 12:32:06;;;;;;;;;;;;;;;;;;5097454;28;19963;-82
2023/03/31 12:34:34;;;;;;;;;;;;;;;;;;5100688;28;20015;-77
2023/03/31 12:37:01;;;;;;;;;;;;;;;;;;5101501;28;19931;-76
2023/03/31 12:39:28;;;;;;;;;;;;;;;;;;5093686;28;20454;-77
2023/03/31 12:41:55;;;;;;;;;;;;;;;;;;5088622;28;20368;-72
2023/03/31 12:44:22;;;;;;;;;;;;;;;;;;5080202;28;19929;-74
2023/03/31 12:46:49;;;;;;;;;;;;;;;;;;5093294;28;19980;-74
2023/03/31 12:49:16;;;;;;;;;;;;;;;;;;5080550;28;19986;-75
2023/03/31 12:51:44;;;;;;;;;;;;;;;;;;5083371;28;19924;-73
2023/03/31 12:54:11;;;;;;;;;;;;;;;;;;5081044;28;20011;-71
2023/03/31 12:56:38;;;;;;;;;;;;;;;;;;5086567;28;20329;-72
2023/03/31 12:59:05;;;;;;;;;;;;;;;;;;5090068;28;19977;-71
2023/03/31 13:01:32;;;;;;;;;;;;;;;;;;5086262;28;19928;-72
2023/03/31 13:03:59;;;;;;;;;;;;;;;;;;5086140;28;19967;-73
2023/03/31 13:06:26;;;;;;;;;;;;;;;;;;5091642;28;20007;-72
2023/03/31 13:08:53;;;;;;;;;;;;;;;;;;5084821;28;20022;-73
2023/03/31 13:11:20;;;;;;;;;;;;;;;;;;5091990;28;20013;-72
2023/03/31 13:13:47;;;;;;;;;;;;;;;;;;5086399;28;19956;-73
2023/03/31 13:16:14;;;;;;;;;;;;;;;;;;5089632;28;19928;-72
2023/03/31 13:18:42;;;;;;;;;;;;;;;;;;5091456;28;19987;-72
2023/03/31 13:21:11;;;;;;;;;;;;;;;;;;5089736;28;19994;-72
2023/03/31 13:23:38;;;;;;;;;;;;;;;;;;5081165;28;20370;-72
2023/03/31 13:26:05;;;;;;;;;;;;;;;;;;5092659;28;19924;-75
2023/03/31 13:28:32;;;;;;;;;;;;;;;;;;5092568;28;19925;-74
2023/03/31 13:31:01;;;;;;;;;;;;;;;;;;5096027;28;19942;-76
2023/03/31 13:33:28;;;;;;;;;;;;;;;;;;5081797;28;20004;-76
2023/03/31 13:35:55;;;;;;;;;;;;;;;;;;5093526;28;19991;-75
2023/03/31 13:38:22;;;;;;;;;;;;;;;;;;5087310;28;19931;-75
2023/03/31 13:40:49;;;;;;;;;;;;;;;;;;5087262;28;19924;-75
2023/03/31 13:43:16;;;;;;;;;;;;;;;;;;5083438;28;20018;-75
2023/03/31 13:45:43;;;;;;;;;;;;;;;;;;5096121;28;20046;-75
2023/03/31 13:48:10;;;;;;;;;;;;;;;;;;5084882;28;19928;-75
2023/03/31 13:50:37;;;;;;;;;;;;;;;;;;5091637;28;19928;-70
2023/03/31 13:53:05;;;;;;;;;;;;;;;;;;5093936;28;19999;-76
2023/03/31 13:55:33;;;;;;;;;;;;;;;;;;5099885;28;19924;-75
2023/03/31 13:58:00;;;;;;;;;;;;;;;;;;5089638;28;19931;-75
2023/03/31 14:00:27;;;;;;;;;;;;;;;;;;5102467;28;19924;-76
2023/03/31 14:02:54;;;;;;;;;;;;;;;;;;5099403;28;20015;-76
2023/03/31 14:05:21;;;;;;;;;;;;;;;;;;5102753;28;19991;-75
2023/03/31 14:07:48;;;;;;;;;;;;;;;;;;5104530;28;19967;-74
2023/03/31 14:10:16;;;;;;;;;;;;;;;;;;5102344;28;19924;-74
2023/03/31 14:12:43;;;;;;;;;;;;;;;;;;5094406;28;19928;-76
2023/03/31 14:15:10;;;;;;;;;;;;;;;;;;5091899;28;19967;-75
2023/03/31 14:17:37;;;;;;;;;;;;;;;;;;5085557;28;19988;-74
2023/03/31 14:20:07;;;;;;;;;;;;;;;;;;5080487;28;20268;-74
2023/03/31 14:22:34;;;;;;;;;;;;;;;;;;5096488;28;19924;-74
2023/03/31 14:25:01;;;;;;;;;;;;;;;;;;5082062;28;20438;-75
2023/03/31 14:27:29;;;;;;;;;;;;;;;;;;5084582;28;19942;-75
2023/03/31 14:29:56;;;;;;;;;;;;;;;;;;5085700;28;19936;-75
2023/03/31 14:32:27;;;;;;;;;;;;;;;;;;5092062;28;19930;-74
2023/03/31 14:34:54;;;;;;;;;;;;;;;;;;5089896;28;19978;-75
2023/03/31 14:37:23;;;;;;;;;;;;;;;;;;5098558;28;20015;-75
2023/03/31 14:39:51;;;;;;;;;;;;;;;;;;5084424;28;19967;-75
2023/03/31 14:42:18;;;;;;;;;;;;;;;;;;5099911;28;19928;-75
2023/03/31 14:44:46;;;;;;;;;;;;;;;;;;5099077;28;20367;-75
2023/03/31 14:47:13;;;;;;;;;;;;;;;;;;5101079;28;19932;-75
2023/03/31 14:49:40;;;;;;;;;;;;;;;;;;5086843;28;19928;-75
2023/03/31 14:52:07;;;;;;;;;;;;;;;;;;5088606;28;19984;-75
2023/03/31 14:54:36;;;;;;;;;;;;;;;;;;5096147;28;19930;-76
2023/03/31 14:57:03;;;;;;;;;;;;;;;;;;5097340;28;20419;-74
2023/03/31 14:59:31;;;;;;;;;;;;;;;;;;5095903;28;19936;-74
2023/03/31 15:01:58;;;;;;;;;;;;;;;;;;5102480;28;19928;-75
2023/03/31 15:04:25;;;;;;;;;;;;;;;;;;5107506;28;19971;-73
2023/03/31 15:06:52;;;;;;;;;;;;;;;;;;5086787;28;20433;-77
2023/03/31 15:09:19;;;;;;;;;;;;;;;;;;5095980;28;19935;-75
2023/03/31 15:11:46;;;;;;;;;;;;;;;;;;5099611;28;19925;-75
2023/03/31 15:14:13;;;;;;;;;;;;;;;;;;5098873;28;20783;-76
2023/03/31 15:16:41;;;;;;;;;;;;;;;;;;5102904;28;19964;-78
2023/03/31 15:19:08;;;;;;;;;;;;;;;;;;5099742;28;20278;-75
2023/03/31 15:21:35;;;;;;;;;;;;;;;;;;5100185;28;19927;-78
2023/03/31 15:24:02;;;;;;;;;;;;;;;;;;5091842;28;19970;-76
2023/03/31 15:26:29;;;;;;;;;;;;;;;;;;5085925;28;19975;-78
2023/03/31 15:28:56;;;;;;;;;;;;;;;;;;5093003;28;19959;-76
2023/03/31 15:31:25;;;;;;;;;;;;;;;;;;5101977;28;20481;-76
2023/03/31 15:33:52;;;;;;;;;;;;;;;;;;5094630;28;19924;-77
2023/03/31 15:36:19;;;;;;;;;;;;;;;;;;5098145;28;19924;-75
2023/03/31 15:38:47;;;;;;;;;;;;;;;;;;5102769;28;19954;-75
2023/03/31 15:41:15;;;;;;;;;;;;;;;;;;5095540;28;20272;-76
2023/03/31 15:43:43;;;;;;;;;;;;;;;;;;5100411;28;19926;-76
2023/03/31 15:46:10;;;;;;;;;;;;;;;;;;5082819;28;20300;-76
2023/03/31 15:48:37;;;;;;;;;;;;;;;;;;5087316;28;19980;-76
2023/03/31 15:51:04;;;;;;;;;;;;;;;;;;5087145;28;19928;-76
2023/03/31 15:53:32;;;;;;;;;;;;;;;;;;5094563;28;19974;-76
2023/03/31 15:56:00;;;;;;;;;;;;;;;;;;5101570;28;20383;-76
2023/03/31 15:58:28;;;;;;;;;;;;;;;;;;5085729;28;19924;-80
2023/03/31 16:00:55;;;;;;;;;;;;;;;;;;5092892;28;19989;-78
2023/03/31 16:03:22;;;;;;;;;;;;;;;;;;5098413;28;19946;-76
2023/03/31 16:05:49;;;;;;;;;;;;;;;;;;5099216;28;19959;-76
2023/03/31 16:08:16;;;;;;;;;;;;;;;;;;5084115;28;19924;-75
2023/03/31 16:10:43;;;;;;;;;;;;;;;;;;5087148;28;20401;-76
2023/03/31 16:13:10;;;;;;;;;;;;;;;;;;5078606;28;19967;-76
2023/03/31 16:15:37;;;;;;;;;;;;;;;;;;5081482;28;19924;-77
2023/03/31 16:18:04;;;;;;;;;;;;;;;;;;5082186;28;19972;-79
2023/03/31 16:20:31;;;;;;;;;;;;;;;;;;5080694;28;19931;-78
2023/03/31 16:22:58;;;;;;;;;;;;;;;;;;5079461;28;20272;-77
2023/03/31 16:25:26;;;;;;;;;;;;;;;;;;5088928;28;20393;-76
2023/03/31 16:27:53;;;;;;;;;;;;;;;;;;5081459;28;19986;-80
2023/03/31 16:30:20;;;;;;;;;;;;;;;;;;5083467;28;19931;-72
2023/03/31 16:32:47;;;;;;;;;;;;;;;;;;5084874;28;19932;-77
2023/03/31 16:35:14;;;;;;;;;;;;;;;;;;5082940;28;20007;-79
2023/03/31 16:37:41;;;;;;;;;;;;;;;;;;5086849;28;19972;-77
2023/03/31 16:40:08;;;;;;;;;;;;;;;;;;5087809;28;19985;-78
2023/03/31 16:42:35;;;;;;;;;;;;;;;;;;5090209;28;20018;-77
2023/03/31 16:45:03;;;;;;;;;;;;;;;;;;5076923;28;19924;-77
2023/03/31 16:47:30;;;;;;;;;;;;;;;;;;5072070;28;19951;-79
2023/03/31 16:49:57;;;;;;;;;;;;;;;;;;5080912;28;20387;-76
2023/03/31 16:52:25;;;;;;;;;;;;;;;;;;5078009;28;19924;-75